createdAt,value
2023-01-29T00:00:20.409Z,8.02
2023-01-29T00:02:48.991Z,7.92
2023-01-29T00:05:27.372Z,7.82
2023-01-29T00:07:57.373Z,7.70
2023-01-29T00:10:27.057Z,7.92
2023-01-29T00:12:56.181Z,7.97
2023-01-29T00:15:26.445Z,8.13
2023-01-29T00:17:54.881Z,7.33
2023-01-29T00:20:23.439Z,7.97
2023-01-29T00:22:52.215Z,7.89
2023-01-29T00:25:21.026Z,8.07
2023-01-29T00:27:54.072Z,8.24
2023-01-29T00:30:28.597Z,7.76
2023-01-29T00:32:58.444Z,8.11
2023-01-29T00:35:27.267Z,8.28
2023-01-29T00:37:57.827Z,8.21
2023-01-29T00:40:29.649Z,7.99
2023-01-29T00:43:15.595Z,8.05
2023-01-29T00:45:45.589Z,8.10
2023-01-29T00:48:14.135Z,7.94
2023-01-29T00:50:42.820Z,8.06
2023-01-29T00:53:11.468Z,7.96
2023-01-29T00:55:40.093Z,8.04
2023-01-29T00:58:08.586Z,7.85
2023-01-29T01:00:36.911Z,7.75
2023-01-29T01:03:05.682Z,7.93
2023-01-29T01:05:35.197Z,7.91
2023-01-29T01:08:04.067Z,7.93
2023-01-29T01:10:33.846Z,8.09
2023-01-29T01:13:04.936Z,7.89
2023-01-29T01:15:36.620Z,7.96
2023-01-29T01:18:07.268Z,7.76
2023-01-29T01:20:37.766Z,7.83
2023-01-29T01:23:06.843Z,7.79
2023-01-29T01:25:35.832Z,7.77
2023-01-29T01:28:04.517Z,7.87
2023-01-29T01:30:33.211Z,7.91
2023-01-29T01:33:01.890Z,7.50
2023-01-29T01:35:32.037Z,7.88
2023-01-29T01:38:02.043Z,7.88
2023-01-29T01:40:30.531Z,7.69
2023-01-29T01:43:01.245Z,7.85
2023-01-29T01:45:32.666Z,8.00
2023-01-29T01:48:07.040Z,7.83
2023-01-29T01:50:42.735Z,7.90
2023-01-29T01:53:16.052Z,7.94
2023-01-29T01:55:49.893Z,7.86
2023-01-29T01:58:25.840Z,7.94
2023-01-29T02:00:55.441Z,7.82
2023-01-29T02:03:43.373Z,7.96
2023-01-29T02:06:31.513Z,7.87
2023-01-29T02:09:23.540Z,7.96
2023-01-29T02:11:53.028Z,7.95
2023-01-29T02:14:22.213Z,8.09
2023-01-29T02:16:51.073Z,8.03
2023-01-29T02:19:32.043Z,7.86
2023-01-29T02:22:29.315Z,7.75
2023-01-29T02:25:41.798Z,7.86
2023-01-29T02:28:31.732Z,7.92
2023-01-29T02:31:10.505Z,7.99
2023-01-29T02:33:51.475Z,7.81
2023-01-29T02:36:32.638Z,7.99
2023-01-29T02:39:10.287Z,7.82
2023-01-29T02:41:45.378Z,7.90
2023-01-29T02:44:23.597Z,8.05
2023-01-29T02:47:00.084Z,7.91
2023-01-29T02:49:36.865Z,7.76
2023-01-29T02:52:11.349Z,7.86
2023-01-29T02:54:48.052Z,7.86
2023-01-29T02:57:22.855Z,7.63
2023-01-29T02:59:58.622Z,7.81
2023-01-29T03:02:34.669Z,7.71
2023-01-29T03:05:10.410Z,7.99
2023-01-29T03:07:46.501Z,7.92
2023-01-29T03:10:22.028Z,7.69
2023-01-29T03:12:56.867Z,7.81
2023-01-29T03:15:38.990Z,7.56
2023-01-29T03:18:12.793Z,7.95
2023-01-29T03:20:49.744Z,7.70
2023-01-29T03:23:44.983Z,7.90
2023-01-29T03:26:32.482Z,7.83
2023-01-29T03:29:21.991Z,7.72
2023-01-29T03:32:07.588Z,7.85
2023-01-29T03:34:40.866Z,7.94
2023-01-29T03:37:16.472Z,7.94
2023-01-29T03:39:44.995Z,7.71
2023-01-29T03:42:22.147Z,7.87
2023-01-29T03:45:00.872Z,7.89
2023-01-29T03:47:43.425Z,7.83
2023-01-29T03:50:25.961Z,7.68
2023-01-29T03:53:03.788Z,8.06
2023-01-29T03:55:43.676Z,7.69
2023-01-29T03:58:25.169Z,7.67
2023-01-29T04:00:59.878Z,7.54
2023-01-29T04:03:36.239Z,7.45
2023-01-29T04:06:12.417Z,7.72
2023-01-29T04:08:51.922Z,7.49
2023-01-29T04:11:23.689Z,7.86
2023-01-29T04:13:54.011Z,7.79
2023-01-29T04:16:28.625Z,7.77
2023-01-29T04:18:58.769Z,7.83
2023-01-29T04:21:28.167Z,7.93
2023-01-29T04:23:56.924Z,7.90
2023-01-29T04:26:48.064Z,7.73
2023-01-29T04:29:30.313Z,7.71
2023-01-29T04:32:09.904Z,7.62
2023-01-29T04:34:53.058Z,7.50
2023-01-29T04:37:36.576Z,7.67
2023-01-29T04:40:19.691Z,7.86
2023-01-29T04:43:02.310Z,7.84
2023-01-29T04:45:47.173Z,7.91
2023-01-29T04:48:23.829Z,7.85
2023-01-29T04:51:05.452Z,7.99
2023-01-29T04:53:46.514Z,7.99
2023-01-29T04:56:22.853Z,7.54
2023-01-29T04:58:59.624Z,7.67
2023-01-29T05:01:33.238Z,7.55
2023-01-29T05:04:07.779Z,7.65
2023-01-29T05:06:39.255Z,7.81
2023-01-29T05:09:09.423Z,7.47
2023-01-29T05:11:38.854Z,7.85
2023-01-29T05:14:13.030Z,7.96
2023-01-29T05:16:46.441Z,7.89
2023-01-29T05:19:17.077Z,8.07
2023-01-29T05:21:50.196Z,7.69
2023-01-29T05:24:21.612Z,7.72
2023-01-29T05:27:10.060Z,7.70
2023-01-29T05:29:39.300Z,7.64
2023-01-29T05:32:07.962Z,7.59
2023-01-29T05:34:36.709Z,7.88
2023-01-29T05:37:06.903Z,7.84
2023-01-29T05:39:35.786Z,7.82
2023-01-29T05:42:04.961Z,7.74
2023-01-29T05:44:33.906Z,7.85
2023-01-29T05:47:03.937Z,7.68
2023-01-29T05:49:32.727Z,7.59
2023-01-29T05:52:01.068Z,7.83
2023-01-29T05:54:31.988Z,7.67
2023-01-29T05:57:03.386Z,7.84
2023-01-29T05:59:36.001Z,7.84
2023-01-29T06:02:04.933Z,7.68
2023-01-29T06:04:33.619Z,7.37
2023-01-29T06:07:03.503Z,7.57
2023-01-29T06:09:33.510Z,7.30
2023-01-29T06:12:02.512Z,7.30
2023-01-29T06:14:31.493Z,7.38
2023-01-29T06:17:03.152Z,7.47
2023-01-29T06:19:32.041Z,7.82
2023-01-29T06:22:00.771Z,7.70
2023-01-29T06:24:30.022Z,7.39
2023-01-29T06:27:01.061Z,7.70
2023-01-29T06:29:32.778Z,7.62
2023-01-29T06:32:01.502Z,7.64
2023-01-29T06:34:30.194Z,7.66
2023-01-29T06:37:01.860Z,7.28
2023-01-29T06:39:30.393Z,7.69
2023-01-29T06:42:00.602Z,7.46
2023-01-29T06:44:29.524Z,7.53
2023-01-29T07:09:30.216Z,7.68
2023-01-29T07:11:59.145Z,7.57
2023-01-29T07:14:33.147Z,7.39
2023-01-29T07:17:01.640Z,7.50
2023-01-29T07:19:31.553Z,7.47
2023-01-29T07:22:02.542Z,7.56
2023-01-29T07:24:32.755Z,7.68
2023-01-29T07:27:01.569Z,7.62
2023-01-29T07:29:38.490Z,7.83
2023-01-29T07:33:30.063Z,7.55
2023-01-29T07:35:59.811Z,7.57
2023-01-29T07:38:28.607Z,7.57
2023-01-29T07:40:58.651Z,7.52
2023-01-29T07:43:27.427Z,7.57
2023-01-29T07:45:58.320Z,7.53
2023-01-29T07:48:27.368Z,7.10
2023-01-29T07:50:58.569Z,7.48
2023-01-29T07:53:28.012Z,7.49
2023-01-29T07:55:58.069Z,7.67
2023-01-29T07:58:26.586Z,7.63
2023-01-29T08:00:55.216Z,7.37
2023-01-29T08:03:23.834Z,7.29
2023-01-29T08:05:52.565Z,7.89
2023-01-29T08:08:21.670Z,7.69
2023-01-29T08:10:50.134Z,7.50
2023-01-29T08:13:20.160Z,7.52
2023-01-29T08:15:48.832Z,7.76
2023-01-29T08:18:19.955Z,7.80
2023-01-29T08:20:50.985Z,7.83
2023-01-29T08:23:23.592Z,7.86
2023-01-29T08:25:55.090Z,7.68
2023-01-29T08:28:25.528Z,7.74
2023-01-29T08:30:54.170Z,7.32
2023-01-29T08:33:29.801Z,7.21
2023-01-29T08:36:04.419Z,7.81
2023-01-29T08:38:35.263Z,7.61
2023-01-29T08:41:06.127Z,8.11
2023-01-29T08:43:37.116Z,7.62
2023-01-29T08:46:07.150Z,7.61
2023-01-29T08:48:36.418Z,7.53
2023-01-29T08:51:06.497Z,7.69
2023-01-29T08:53:35.098Z,7.78
2023-01-29T08:56:04.148Z,7.75
2023-01-29T08:58:51.880Z,7.92
2023-01-29T09:01:21.281Z,8.17
2023-01-29T09:03:53.027Z,7.90
2023-01-29T09:06:22.236Z,7.44
2023-01-29T09:08:51.921Z,7.84
2023-01-29T09:11:20.541Z,8.11
2023-01-29T09:13:52.906Z,7.71
2023-01-29T09:16:22.564Z,8.38
2023-01-29T09:18:52.268Z,8.13
2023-01-29T09:21:27.415Z,8.46
2023-01-29T09:23:56.274Z,8.41
2023-01-29T09:26:26.005Z,8.00
2023-01-29T09:28:56.723Z,8.27
2023-01-29T09:31:28.373Z,8.46
2023-01-29T09:33:57.437Z,8.36
2023-01-29T09:36:29.134Z,8.41
2023-01-29T09:38:58.948Z,8.11
2023-01-29T09:41:45.059Z,8.39
2023-01-29T09:44:25.801Z,8.29
2023-01-29T09:46:57.757Z,8.63
2023-01-29T09:49:31.976Z,8.53
2023-01-29T09:52:08.389Z,8.25
2023-01-29T09:54:52.972Z,8.53
2023-01-29T09:57:30.722Z,8.55
2023-01-29T10:00:04.800Z,8.37
2023-01-29T10:02:56.325Z,8.02
2023-01-29T10:05:54.561Z,8.09
2023-01-29T10:09:21.390Z,8.46
2023-01-29T10:12:03.070Z,8.02
2023-01-29T10:14:46.923Z,8.27
2023-01-29T10:17:39.546Z,8.13
2023-01-29T10:20:43.037Z,7.92
2023-01-29T10:23:28.294Z,8.49
2023-01-29T10:26:02.112Z,8.37
2023-01-29T10:28:35.909Z,8.56
2023-01-29T10:31:11.539Z,7.93
2023-01-29T10:34:02.627Z,8.44
2023-01-29T10:36:41.461Z,8.46
2023-01-29T10:39:19.017Z,8.77
2023-01-29T10:42:03.557Z,8.61
2023-01-29T10:44:47.934Z,8.68
2023-01-29T10:47:50.562Z,8.64
2023-01-29T10:50:35.969Z,8.70
2023-01-29T10:53:23.666Z,8.56
2023-01-29T10:56:05.803Z,8.80
2023-01-29T10:58:50.560Z,8.96
2023-01-29T11:01:19.307Z,9.03
2023-01-29T11:03:57.388Z,9.05
2023-01-29T11:06:40.580Z,9.16
2023-01-29T11:09:25.775Z,8.64
2023-01-29T11:11:59.469Z,8.32
2023-01-29T11:14:44.173Z,8.79
2023-01-29T11:17:18.217Z,8.75
2023-01-29T11:19:52.975Z,8.57
2023-01-29T11:22:27.999Z,8.96
2023-01-29T11:25:20.225Z,8.64
2023-01-29T11:27:57.787Z,8.24
2023-01-29T11:30:32.627Z,8.80
2023-01-29T11:33:11.031Z,8.50
2023-01-29T11:35:39.937Z,8.61
2023-01-29T11:38:20.740Z,8.51
2023-01-29T11:40:49.708Z,8.73
2023-01-29T11:43:33.278Z,8.88
2023-01-29T11:46:05.377Z,8.68
2023-01-29T11:48:43.061Z,8.35
2023-01-29T11:51:22.819Z,8.54
2023-01-29T11:53:59.879Z,8.63
2023-01-29T11:56:35.857Z,8.57
2023-01-29T11:59:07.536Z,8.66
2023-01-29T12:01:45.893Z,8.72
2023-01-29T12:04:22.931Z,8.58
2023-01-29T12:06:55.864Z,8.50
2023-01-29T12:09:28.650Z,8.76
2023-01-29T12:12:17.589Z,8.95
2023-01-29T12:14:46.417Z,8.86
2023-01-29T12:17:21.738Z,8.80
2023-01-29T12:19:56.506Z,8.85
2023-01-29T12:22:40.264Z,8.38
2023-01-29T12:25:25.831Z,8.58
2023-01-29T12:28:05.114Z,8.34
2023-01-29T12:30:46.268Z,8.51
2023-01-29T12:33:29.129Z,8.52
2023-01-29T12:36:11.364Z,8.85
2023-01-29T12:39:00.737Z,8.19
2023-01-29T12:41:41.232Z,8.35
2023-01-29T12:44:25.382Z,8.44
2023-01-29T12:46:58.662Z,8.56
2023-01-29T12:49:35.305Z,8.44
2023-01-29T12:52:15.268Z,8.74
2023-01-29T12:54:55.854Z,8.70
2023-01-29T12:57:42.203Z,8.80
2023-01-29T13:00:20.088Z,8.87
2023-01-29T13:02:57.009Z,9.19
2023-01-29T13:05:30.364Z,9.10
2023-01-29T13:08:14.066Z,8.81
2023-01-29T13:10:50.442Z,9.29
2023-01-29T13:13:31.796Z,9.36
2023-01-29T13:16:07.478Z,9.13
2023-01-29T13:18:45.454Z,9.19
2023-01-29T13:21:21.297Z,9.04
2023-01-29T13:23:58.666Z,9.27
2023-01-29T13:26:28.309Z,9.17
2023-01-29T13:29:01.766Z,8.98
2023-01-29T13:31:33.091Z,8.93
2023-01-29T13:34:16.592Z,8.82
2023-01-29T13:36:48.730Z,8.78
2023-01-29T13:39:27.954Z,8.83
2023-01-29T13:42:05.168Z,8.85
2023-01-29T13:44:40.928Z,8.30
2023-01-29T13:47:22.047Z,8.73
2023-01-29T13:49:58.411Z,8.68
2023-01-29T13:52:40.246Z,8.37
2023-01-29T13:55:25.435Z,8.66
2023-01-29T13:57:57.625Z,8.79
2023-01-29T14:01:03.060Z,8.89
2023-01-29T14:04:05.591Z,8.56
2023-01-29T14:07:00.552Z,8.79
2023-01-29T14:10:12.068Z,8.61
2023-01-29T14:12:45.579Z,8.64
2023-01-29T14:15:32.301Z,8.62
2023-01-29T14:18:24.163Z,8.69
2023-01-29T14:21:01.954Z,8.46
2023-01-29T14:23:47.146Z,8.68
2023-01-29T14:26:34.576Z,8.72
2023-01-29T14:29:32.553Z,8.76
2023-01-29T14:32:15.771Z,8.72
2023-01-29T14:34:49.920Z,8.85
2023-01-29T14:37:28.091Z,8.81
2023-01-29T14:40:00.362Z,8.77
2023-01-29T14:42:40.193Z,8.90
2023-01-29T14:45:24.086Z,8.47
2023-01-29T14:48:38.846Z,8.93
2023-01-29T14:51:15.523Z,8.67
2023-01-29T14:54:18.529Z,8.62
2023-01-29T14:56:59.651Z,8.60
2023-01-29T14:59:39.041Z,8.93
2023-01-29T15:02:20.900Z,8.97
2023-01-29T15:04:55.092Z,8.50
2023-01-29T15:07:38.534Z,8.60
2023-01-29T15:10:22.728Z,8.64
2023-01-29T15:12:58.759Z,9.02
2023-01-29T15:15:39.053Z,8.61
2023-01-29T15:18:15.579Z,8.74
2023-01-29T15:20:45.653Z,8.72
2023-01-29T15:23:31.057Z,8.90
2023-01-29T15:26:12.650Z,8.68
2023-01-29T15:28:43.511Z,8.61
2023-01-29T15:31:19.564Z,8.78
2023-01-29T15:33:53.617Z,8.74
2023-01-29T15:36:29.903Z,8.57
2023-01-29T15:39:22.786Z,8.78
2023-01-29T15:41:54.487Z,8.70
2023-01-29T15:44:27.531Z,8.69
2023-01-29T15:47:17.577Z,8.72
2023-01-29T15:49:51.712Z,8.49
2023-01-29T15:55:50.432Z,8.45
2023-01-29T15:58:30.564Z,8.23
2023-01-29T16:04:06.052Z,8.52
2023-01-29T16:06:56.111Z,8.60
2023-01-29T16:12:52.697Z,8.64
2023-01-29T16:15:36.738Z,8.73
2023-01-29T16:21:16.054Z,8.14
2023-01-29T16:23:52.038Z,8.15
2023-01-29T16:26:31.976Z,8.34
2023-01-29T16:29:16.759Z,8.27
2023-01-29T16:31:49.555Z,8.53
2023-01-29T16:37:34.832Z,8.03
2023-01-29T16:40:20.304Z,8.17
2023-01-29T16:42:49.871Z,8.21
2023-01-29T16:45:33.756Z,8.35
2023-01-29T16:48:26.642Z,8.15
2023-01-29T16:51:11.487Z,8.20
2023-01-29T16:53:40.918Z,8.34
2023-01-29T16:56:21.657Z,8.26
2023-01-29T16:59:00.808Z,8.43
2023-01-29T17:01:35.413Z,8.03
2023-01-29T17:04:11.971Z,8.12
2023-01-29T17:06:47.394Z,8.15
2023-01-29T17:09:22.676Z,8.02
2023-01-29T17:12:02.932Z,8.12
2023-01-29T17:14:35.717Z,8.36
2023-01-29T17:17:30.372Z,8.08
2023-01-29T17:20:08.617Z,7.74
2023-01-29T17:22:58.857Z,8.16
2023-01-29T17:25:29.720Z,8.23
2023-01-29T17:28:01.367Z,8.03
2023-01-29T17:30:35.272Z,8.22
2023-01-29T17:33:15.868Z,8.29
2023-01-29T17:35:46.979Z,8.10
2023-01-29T17:38:25.910Z,7.65
2023-01-29T17:40:59.969Z,8.08
2023-01-29T17:43:43.196Z,8.16
2023-01-29T17:46:16.172Z,7.85
2023-01-29T17:48:49.229Z,8.06
2023-01-29T17:51:25.117Z,7.83
2023-01-29T17:54:13.142Z,7.86
2023-01-29T17:56:42.603Z,7.63
2023-01-29T17:59:17.952Z,7.91
2023-01-29T18:01:47.173Z,8.24
2023-01-29T18:04:20.057Z,7.95
2023-01-29T18:06:51.817Z,8.07
2023-01-29T18:09:22.590Z,7.95
2023-01-29T18:11:53.677Z,7.97
2023-01-29T18:14:22.688Z,7.72
2023-01-29T18:16:53.505Z,7.34
2023-01-29T18:19:35.314Z,7.92
2023-01-29T18:22:16.065Z,7.95
2023-01-29T18:24:47.136Z,8.00
2023-01-29T18:27:16.365Z,7.80
2023-01-29T18:29:45.058Z,7.75
2023-01-29T18:32:14.200Z,7.82
2023-01-29T18:34:44.674Z,8.03
2023-01-29T18:37:13.866Z,7.80
2023-01-29T18:39:42.714Z,7.83
2023-01-29T18:42:11.481Z,7.90
2023-01-29T18:44:42.228Z,7.56
2023-01-29T18:47:11.431Z,7.52
2023-01-29T18:49:42.635Z,7.90
2023-01-29T18:52:14.239Z,7.66
2023-01-29T18:54:47.520Z,7.90
2023-01-29T18:58:28.974Z,7.84
2023-01-29T19:00:15.870Z,7.78
2023-01-29T19:02:54.046Z,7.78
2023-01-29T19:05:24.925Z,8.00
2023-01-29T19:07:56.345Z,7.85
2023-01-29T19:10:25.439Z,7.62
2023-01-29T19:13:06.603Z,7.83
2023-01-29T19:15:39.219Z,7.52
2023-01-29T19:18:14.698Z,7.83
2023-01-29T19:20:44.127Z,8.02
2023-01-29T19:23:19.500Z,8.34
2023-01-29T19:25:48.732Z,7.77
2023-01-29T19:28:24.022Z,7.78
2023-01-29T19:30:54.658Z,7.83
2023-01-29T19:33:24.259Z,7.78
2023-01-29T19:35:56.718Z,7.86
2023-01-29T19:38:34.209Z,7.84
2023-01-29T19:41:08.553Z,7.84
2023-01-29T19:43:40.643Z,7.83
2023-01-29T19:46:11.093Z,7.88
2023-01-29T19:48:40.598Z,7.93
2023-01-29T19:51:12.547Z,8.42
2023-01-29T19:53:46.164Z,8.11
2023-01-29T19:56:21.437Z,8.00
2023-01-29T19:58:57.508Z,8.09
2023-01-29T20:01:32.921Z,8.15
2023-01-29T20:04:09.251Z,7.89
2023-01-29T20:06:39.059Z,8.15
2023-01-29T20:09:10.285Z,8.30
2023-01-29T20:11:47.809Z,8.07
2023-01-29T20:14:17.674Z,8.08
2023-01-29T20:16:48.020Z,8.13
2023-01-29T20:19:20.678Z,8.19
2023-01-29T20:21:53.093Z,7.96
2023-01-29T20:24:28.449Z,8.03
2023-01-29T20:27:09.156Z,8.08
2023-01-29T20:29:54.875Z,8.39
2023-01-29T20:32:24.141Z,8.09
2023-01-29T20:34:55.565Z,8.11
2023-01-29T20:37:32.715Z,8.20
2023-01-29T20:40:04.457Z,8.19
2023-01-29T20:45:22.294Z,8.18
2023-01-29T20:47:52.047Z,8.24
2023-01-29T20:50:21.225Z,8.28
2023-01-29T20:52:57.608Z,8.33
2023-01-29T20:55:28.580Z,8.26
2023-01-29T20:58:06.368Z,8.39
2023-01-29T21:00:36.311Z,8.53
2023-01-29T21:03:08.859Z,8.23
2023-01-29T21:05:37.820Z,8.23
2023-01-29T21:08:07.188Z,8.04
2023-01-29T21:10:45.242Z,8.43
2023-01-29T21:13:14.309Z,8.28
2023-01-29T21:15:45.069Z,8.43
2023-01-29T21:18:14.349Z,8.21
2023-01-29T21:20:43.484Z,8.57
2023-01-29T21:23:12.683Z,8.56
2023-01-29T21:25:46.288Z,8.67
2023-01-29T21:28:19.269Z,8.52
2023-01-29T21:30:49.549Z,8.66
2023-01-29T21:33:18.212Z,8.35
2023-01-29T21:35:46.941Z,8.52
2023-01-29T21:38:15.840Z,8.42
2023-01-29T21:40:46.701Z,8.56
2023-01-29T21:43:15.740Z,8.79
2023-01-29T21:45:46.233Z,8.44
2023-01-29T21:48:15.414Z,8.43
2023-01-29T21:50:44.268Z,8.60
2023-01-29T21:53:13.459Z,8.41
2023-01-29T21:55:42.249Z,8.57
2023-01-29T21:58:14.663Z,8.97
2023-01-29T22:00:43.727Z,8.78
2023-01-29T22:03:12.282Z,8.92
2023-01-29T22:05:41.444Z,8.88
2023-01-29T22:08:10.263Z,8.83
2023-01-29T22:10:40.227Z,8.88
2023-01-29T22:13:09.526Z,8.85
2023-01-29T22:15:39.526Z,9.12
2023-01-29T22:18:08.050Z,9.10
2023-01-29T22:20:36.730Z,8.86
2023-01-29T22:23:05.559Z,8.65
2023-01-29T22:25:34.310Z,8.95
2023-01-29T22:28:03.362Z,9.11
2023-01-29T22:30:33.664Z,8.81
2023-01-29T22:33:04.529Z,9.01
2023-01-29T22:35:33.754Z,9.12
2023-01-29T22:38:02.290Z,8.70
2023-01-29T22:40:30.898Z,8.94
2023-01-29T22:43:00.206Z,9.17
2023-01-29T22:45:28.817Z,9.10
2023-01-29T22:47:58.058Z,8.96
2023-01-29T22:50:30.103Z,8.93
2023-01-29T22:52:59.178Z,8.78
2023-01-29T22:55:27.994Z,8.82
2023-01-29T22:57:56.763Z,9.14
2023-01-29T23:00:25.780Z,9.18
2023-01-29T23:02:54.324Z,8.97
2023-01-29T23:05:22.920Z,9.24
2023-01-29T23:07:53.165Z,9.20
2023-01-29T23:10:22.612Z,9.07
2023-01-29T23:12:51.520Z,9.32
2023-01-29T23:15:20.395Z,9.21
2023-01-29T23:17:49.198Z,9.27
2023-01-29T23:20:20.602Z,9.12
2023-01-29T23:22:49.297Z,9.48
2023-01-29T23:25:20.241Z,9.52
2023-01-29T23:27:48.436Z,9.51
2023-01-29T23:30:17.644Z,9.33
2023-01-29T23:32:46.566Z,9.41
2023-01-29T23:35:15.388Z,9.49
2023-01-29T23:37:43.965Z,9.37
2023-01-29T23:40:13.787Z,9.52
2023-01-29T23:42:44.776Z,9.18
2023-01-29T23:45:13.381Z,9.57
2023-01-29T23:47:43.686Z,9.36
2023-01-29T23:50:14.768Z,9.92
2023-01-29T23:52:43.502Z,9.98
2023-01-29T23:55:12.455Z,9.72
2023-01-29T23:57:42.921Z,9.73
